4TX9 weather

Medical Center Hospital Heliport
San Antonio, Texas, United States

Public forecast

Using degrees Fahrenheit for public forecast. Weather courtesy of forecast.io.

METAR (pilot weather report)

Closest report is San Antonio International Airport, 5.9 nm (11.0 km) ENE. Retrieved 2019/07/21 21:51 UTC (1 hour ago):

KSAT 212151Z 15015KT 10SM SCT060 SCT250 36/19 A2990 RMK AO2 SLP107 T03560189 $

TAF (pilot weather forecast)

Closest forecast is San Antonio International Airport, 5.9 nm (11.0 km) ENE. Retrieved 2019/07/21 18:42 UTC (4 hours ago):

TAF KSAT 211739Z 2118/2224 16011KT P6SM FEW040 BKN250 FM221000 20005KT P6SM FEW008 BKN015 FM221400 15006KT P6SM FEW045 SCT250